Trebloc, Mississippi
Current Conditions -  °F | °C
As of 6:55 AM on Saturday 25 Oct 2014 (Local Time) from KM40 Reporting Station
Haze Haze  
Wind Chill: 45°   Ceiling: Unl
Heat Index: 45°   Visibility: 3mi
Dew Point: 32°   Wind: 0mph
Humidity: 61%   Direction: NA
Pressure: 30.13"   Gusts: NA
Location:  33.84°N, 88.83°W
Report Text: KM40 251155Z AUTO 00000KT 3SM HZ CLR 07/00 A3013 RMK AO2
Loading
Personal Weather Stations






























Interactive Weather Map
Tropical Storm Tracking
New forecast layout! Learn more

10-Day Weather Forecast

Advertisements
Track Severe Weather on mobile